Southern Ontario METAR Reports

CYSN - St.Catharines
Updated: 05/25/2019 5:00pm
Mostly cloudy
Mostly cloudy
 Wind from SSE
Wind: SSE 13 km/h
Temperature: 20°C
Dew Point: 16°C
Humidity: 78%
Barometer: 1008.5 hPa
Clouds: Mostly cloudy
Visibility: 24 km
Cloud details: Partly cloudy 3048 m
Mostly cloudy 7620 m
2019/05/25 21:00 CYSN 252100Z 16007KT 15SM SCT100 BKN250 20/16 A2978 RMK AC3CI4 PRESFR SLP086 DENSITY ALT 1200FT
CYHM - Hamilton
Updated: 05/25/2019 5:00pm
Mostly cloudy
Mostly cloudy
 Wind from ESE
Wind: ESE 9 km/h
Temperature: 24°C
Dew Point: 19°C
Humidity: 74%
Barometer: 1008.8 hPa
Clouds: Mostly cloudy
Visibility: 24 km
Cloud details: Partly cloudy 1341 m
Mostly cloudy 3048 m
Mostly cloudy 8230 m
2019/05/25 21:00 CYHM 252100Z 12005KT 060V130 15SM SCT044 BKN100 BKN270 24/19 A2979 RMK CU3AC3CI1 CVCTV CLD EMBD SLP090 DENSITY ALT 2100FT
 
CYYZ - Toronto
Updated: 05/25/2019 5:31pm
Heavy thunderstorm, Rain, Overcast
Heavy thunderstorm, Rain, Overcast
 Wind from N
Wind: N 20 km/h, Gust: 52 km/h
Temperature: 19°C
Dew Point: 17°C
Humidity: 88%
Barometer: 1010.2 hPa
Summary: Heavy thunderstorm, Rain
Clouds: Overcast
Visibility: 1.2 km
Cloud details: Partly cloudy 274 m
Overcast 1067 m
2019/05/25 21:31 CYYZ 252131Z 01011G28KT 3/4SM R24R/3500VP6000FT/D R23/3000VP6000FT/D +TSRA SCT009 OVC035CB 19/17 A2983 RMK RA2CF2CB4 FREQ LTGIC OVRHD PRESRR SLP104 DENSITY ALT 1300FT
CYKF - Waterloo
Updated: 05/25/2019 5:33pm
Light thunderstorm, Rain, Overcast
Light thunderstorm, Rain, Overcast
 Wind from W
Wind: W 11 km/h, Gust: 37 km/h
Temperature: 18°C
Dew Point: 17°C
Humidity: 94%
Barometer: 1010.8 hPa
Summary: Light thunderstorm, Rain
Clouds: Overcast
Visibility: 13 km
Cloud details: Few Clouds 762 m
Mostly cloudy 1158 m
Mostly cloudy 1829 m
Overcast 3962 m
2019/05/25 21:33 CYKF 252133Z AUTO 26006G20KT 210V280 8SM -TSRA FEW025 BKN038 BKN060 OVC130 18/17 A2985 RMK LTNG DIST ALQDS PRESFR SLP111 DENSITY ALT 1700FT
 
CYXU - London
Updated: 05/25/2019 5:37pm
Light rain, Showers, Overcast
Light rain, Showers, Overcast
 Wind from WNW
Wind: WNW 11 km/h
Temperature: 20°C
Dew Point: 18°C
Humidity: 88%
Barometer: 1011.5 hPa
Summary: Light rain, Showers
Clouds: Overcast
Visibility: 19 km
Cloud details: Few Clouds 244 m
Partly cloudy 640 m
Partly cloudy 2438 m
Overcast 3658 m
2019/05/25 21:37 CYXU 252137Z 29006KT 12SM -SHRA FEW008 SCT021TCU SCT080 OVC120 20/18 A2987 RMK SF1TCU3AC1AC4 SF TR SLP116 DENSITY ALT 1800FT
CYQG - Windsor
Updated: 05/25/2019 5:00pm
Overcast
Overcast
 Wind from SW
Wind: SW 19 km/h, Gust: 28 km/h
Temperature: 22°C
Dew Point: 19°C
Humidity: 83%
Barometer: 1012.2 hPa
Clouds: Overcast
Visibility: 14 km
Cloud details: Partly cloudy 3048 m
Overcast 3962 m
2019/05/25 21:00 CYQG 252100Z AUTO 23010G15KT 9SM SCT100 OVC130 22/19 A2989 RMK LTNG DIST E SE SLP123 DENSITY ALT 1600FT
 
CYZR - Sarnia
Updated: 05/25/2019 5:00pm
Mostly cloudy
Mostly cloudy
 Wind from WSW
Wind: WSW 15 km/h
Temperature: 22°C
Dew Point: 19°C
Humidity: 83%
Barometer: 1010.5 hPa
Clouds: Mostly cloudy
Visibility: 14 km
Cloud details: Partly cloudy 2896 m
Mostly cloudy 3658 m
Mostly cloudy 4267 m
Mostly cloudy 4877 m
2019/05/25 21:00 CYZR 252100Z AUTO 25008KT 9SM SCT095 BKN120 BKN140 BKN160 22/19 A2984 RMK LTNG DIST SE S SLP108 DENSITY ALT 1600FT
CYVV - Wiarton
Updated: 05/25/2019 5:00pm
Overcast
Overcast
 Wind from WSW
Wind: WSW 19 km/h, Gust: 31 km/h
Temperature: 20°C
Dew Point: 17°C
Humidity: 83%
Barometer: 1009.1 hPa
Clouds: Overcast
Visibility: 24 km
Cloud details: Few Clouds 610 m
Mostly cloudy 3658 m
Overcast 7620 m
2019/05/25 21:00 CYVV 252100Z 24010G17KT 15SM FEW020 BKN120 OVC250 20/17 A2980 RMK SC1AC5CI2 SLP092 DENSITY ALT 1700FT
 
CYPQ - Peterborough
Updated: 05/25/2019 5:00pm
Overcast
Overcast
 Wind from varies
Wind: varies 4 km/h
Temperature: 19°C
Dew Point: 16°C
Humidity: 83%
Barometer: 1010.5 hPa
Clouds: Overcast
Visibility: 14 km
Cloud details: Overcast 914 m
2019/05/25 21:00 CYPQ 252100Z AUTO VRB02KT 9SM OVC030 19/16 A2984 RMK SLP108 DENSITY ALT 1300FT
CYTR - Trenton
Updated: 05/25/2019 5:22pm
Overcast
Overcast
 Wind from E
Wind: E 6 km/h
Temperature: 20°C
Dew Point: 15°C
Humidity: 73%
Barometer: 1010.2 hPa
Clouds: Overcast
Visibility: 24 km
Cloud details: Mostly cloudy 975 m
Overcast 2103 m
2019/05/25 21:22 CYTR 252122Z 08003KT 15SM BKN032 OVC069 20/15 A2983 RMK SC7AC1 SLP102